createdAt,value
2022-12-18T00:00:18.049Z,29.27
2022-12-18T00:02:46.285Z,28.58
2022-12-18T00:05:14.305Z,31.25
2022-12-18T00:07:42.601Z,27.30
2022-12-18T00:10:15.250Z,28.40
2022-12-18T00:12:44.212Z,25.33
2022-12-18T00:15:12.776Z,28.13
2022-12-18T00:17:41.045Z,27.27
2022-12-18T00:20:11.973Z,27.60
2022-12-18T00:22:40.715Z,27.30
2022-12-18T00:25:09.766Z,29.23
2022-12-18T00:27:39.401Z,27.90
2022-12-18T00:30:08.580Z,26.50
2022-12-18T00:32:38.017Z,31.08
2022-12-18T00:35:07.044Z,28.42
2022-12-18T00:37:36.425Z,29.10
2022-12-18T00:40:04.846Z,31.60
2022-12-18T00:42:50.368Z,30.00
2022-12-18T00:45:20.026Z,28.30
2022-12-18T00:47:47.914Z,28.50
2022-12-18T00:50:16.336Z,28.48
2022-12-18T00:52:44.459Z,28.63
2022-12-18T00:55:13.560Z,28.10
2022-12-18T00:57:42.154Z,28.27
2022-12-18T01:00:14.505Z,30.63
2022-12-18T01:02:44.161Z,29.75
2022-12-18T01:05:15.232Z,29.20
2022-12-18T01:07:44.375Z,27.98
2022-12-18T01:10:15.660Z,29.27
2022-12-18T01:12:44.010Z,31.17
2022-12-18T01:15:14.014Z,29.83
2022-12-18T01:17:43.888Z,28.95
2022-12-18T01:20:14.154Z,29.08
2022-12-18T01:22:42.407Z,27.55
2022-12-18T01:25:11.136Z,27.67
2022-12-18T01:27:39.225Z,28.20
2022-12-18T01:30:08.436Z,27.75
2022-12-18T01:32:36.470Z,27.85
2022-12-18T01:35:06.662Z,26.85
2022-12-18T01:37:34.997Z,26.80
2022-12-18T01:40:03.164Z,26.58
2022-12-18T01:42:31.912Z,28.20
2022-12-18T01:45:26.042Z,26.40
2022-12-18T01:47:59.641Z,28.15
2022-12-18T01:50:35.197Z,27.05
2022-12-18T01:53:07.841Z,26.70
2022-12-18T01:55:40.678Z,27.52
2022-12-18T01:58:10.222Z,27.73
2022-12-18T02:00:38.611Z,25.75
2022-12-18T02:03:06.822Z,29.42
2022-12-18T02:05:45.415Z,28.48
2022-12-18T02:08:18.294Z,28.83
2022-12-18T02:10:54.810Z,28.25
2022-12-18T02:13:31.912Z,28.40
2022-12-18T02:16:09.698Z,27.98
2022-12-18T02:18:40.681Z,26.63
2022-12-18T02:21:22.073Z,27.88
2022-12-18T02:23:58.149Z,28.35
2022-12-18T02:26:33.265Z,27.08
2022-12-18T02:29:06.305Z,26.48
2022-12-18T02:31:42.672Z,26.23
2022-12-18T02:34:15.702Z,29.05
2022-12-18T02:36:46.120Z,27.45
2022-12-18T02:39:16.569Z,27.88
2022-12-18T02:41:46.039Z,29.25
2022-12-18T02:44:16.543Z,26.40
2022-12-18T02:46:47.541Z,29.00
2022-12-18T02:49:32.256Z,27.65
2022-12-18T02:52:07.372Z,27.20
2022-12-18T02:54:51.365Z,27.02
2022-12-18T02:57:25.869Z,27.75
2022-12-18T03:00:03.664Z,27.65
2022-12-18T03:02:41.619Z,26.88
2022-12-18T03:05:15.784Z,29.65
2022-12-18T03:07:52.048Z,28.27
2022-12-18T03:10:26.062Z,29.83
2022-12-18T03:13:00.490Z,26.23
2022-12-18T03:15:34.204Z,29.15
2022-12-18T03:18:09.039Z,28.23
2022-12-18T03:20:39.360Z,25.75
2022-12-18T03:23:11.912Z,27.50
2022-12-18T03:25:44.752Z,25.70
2022-12-18T03:28:17.658Z,27.45
2022-12-18T03:30:49.069Z,28.00
2022-12-18T03:33:21.024Z,28.42
2022-12-18T03:35:49.595Z,26.17
2022-12-18T03:38:17.765Z,24.23
2022-12-18T03:40:58.129Z,28.00
2022-12-18T03:43:39.571Z,26.52
2022-12-18T03:46:14.408Z,24.50
2022-12-18T03:48:50.462Z,27.35
2022-12-18T03:51:25.517Z,24.67
2022-12-18T03:53:58.601Z,25.38
2022-12-18T03:56:29.009Z,24.15
2022-12-18T03:59:02.252Z,23.60
2022-12-18T04:01:34.170Z,26.55
2022-12-18T04:04:03.605Z,25.02
2022-12-18T04:06:35.496Z,24.98
2022-12-18T04:09:03.992Z,26.05
2022-12-18T04:11:32.622Z,25.75
2022-12-18T04:14:07.429Z,22.85
2022-12-18T04:16:36.220Z,23.98
2022-12-18T04:19:04.812Z,25.65
2022-12-18T04:21:33.043Z,26.88
2022-12-18T04:24:02.522Z,24.42
2022-12-18T04:26:30.944Z,28.23
2022-12-18T04:28:58.997Z,27.23
2022-12-18T04:31:33.009Z,24.83
2022-12-18T04:34:00.921Z,26.10
2022-12-18T04:36:29.030Z,25.48
2022-12-18T04:38:58.980Z,26.38
2022-12-18T04:41:26.838Z,25.00
2022-12-18T04:43:54.785Z,25.98
2022-12-18T04:46:23.047Z,25.45
2022-12-18T04:48:57.206Z,24.65
2022-12-18T04:51:26.753Z,26.17
2022-12-18T04:53:55.083Z,24.80
2022-12-18T04:56:23.447Z,26.42
2022-12-18T04:58:51.552Z,26.77
2022-12-18T05:01:21.831Z,26.80
2022-12-18T05:03:50.117Z,25.15
2022-12-18T05:06:19.750Z,26.35
2022-12-18T05:08:47.827Z,24.45
2022-12-18T05:11:17.482Z,25.85
2022-12-18T05:13:46.353Z,24.58
2022-12-18T05:16:15.428Z,27.65
2022-12-18T05:18:46.142Z,24.85
2022-12-18T05:21:14.558Z,25.45
2022-12-18T05:23:44.317Z,26.55
2022-12-18T05:26:18.025Z,25.67
2022-12-18T05:28:46.092Z,26.85
2022-12-18T05:31:15.120Z,25.52
2022-12-18T05:33:43.840Z,27.08
2022-12-18T05:36:13.070Z,24.15
2022-12-18T05:38:43.164Z,27.20
2022-12-18T05:41:11.993Z,27.02
2022-12-18T05:43:42.835Z,24.63
2022-12-18T05:46:15.589Z,24.60
2022-12-18T05:48:44.162Z,27.63
2022-12-18T05:51:15.426Z,24.48
2022-12-18T05:53:45.802Z,26.50
2022-12-18T05:56:18.099Z,26.30
2022-12-18T05:58:46.580Z,26.20
2022-12-18T06:01:18.862Z,24.70
2022-12-18T06:03:49.049Z,25.92
2022-12-18T06:06:19.270Z,26.98
2022-12-18T06:08:48.936Z,24.77
2022-12-18T06:11:20.733Z,25.42
2022-12-18T06:13:57.935Z,26.92
2022-12-18T06:16:27.715Z,26.02
2022-12-18T06:18:59.941Z,25.05
2022-12-18T06:21:28.719Z,28.50
2022-12-18T06:23:58.614Z,26.15
2022-12-18T06:26:28.490Z,26.50
2022-12-18T06:28:57.253Z,27.73
2022-12-18T06:31:26.313Z,23.48
2022-12-18T06:33:56.379Z,25.50
2022-12-18T06:36:24.508Z,26.05
2022-12-18T06:38:52.720Z,27.13
2022-12-18T06:41:23.627Z,27.77
2022-12-18T06:43:53.548Z,26.90
2022-12-18T06:46:23.550Z,27.80
2022-12-18T06:48:52.397Z,27.45
2022-12-18T06:51:21.386Z,30.25
2022-12-18T06:53:49.595Z,27.38
2022-12-18T06:56:18.019Z,29.15
2022-12-18T06:58:47.442Z,27.63
2022-12-18T07:01:18.335Z,26.33
2022-12-18T07:03:47.860Z,28.60
2022-12-18T07:06:17.956Z,30.13
2022-12-18T07:08:46.936Z,29.20
2022-12-18T07:11:15.939Z,28.23
2022-12-18T07:13:44.889Z,26.73
2022-12-18T07:16:21.107Z,27.83
2022-12-18T07:18:54.280Z,28.00
2022-12-18T07:21:23.064Z,29.50
2022-12-18T07:23:51.019Z,29.05
2022-12-18T07:26:21.138Z,30.05
2022-12-18T07:28:51.849Z,28.05
2022-12-18T07:31:22.922Z,29.20
2022-12-18T07:33:51.470Z,30.00
2022-12-18T07:36:19.772Z,30.48
2022-12-18T07:38:50.336Z,30.45
2022-12-18T07:41:20.781Z,29.42
2022-12-18T07:43:49.202Z,30.70
2022-12-18T07:46:17.939Z,29.58
2022-12-18T07:48:49.340Z,31.92
2022-12-18T07:51:19.111Z,28.73
2022-12-18T07:53:51.304Z,31.88
2022-12-18T07:56:29.513Z,30.98
2022-12-18T07:58:59.192Z,30.48
2022-12-18T08:01:27.405Z,30.05
2022-12-18T08:03:56.777Z,27.63
2022-12-18T08:06:24.936Z,28.92
2022-12-18T08:08:54.717Z,30.05
2022-12-18T08:11:23.470Z,28.48
2022-12-18T08:13:52.844Z,28.05
2022-12-18T08:16:23.426Z,27.75
2022-12-18T08:18:52.821Z,28.58
2022-12-18T08:21:25.395Z,30.50
2022-12-18T08:26:23.687Z,30.50
2022-12-18T08:28:52.933Z,32.38
2022-12-18T08:31:26.173Z,32.72
2022-12-18T08:33:55.424Z,31.13
2022-12-18T08:36:25.617Z,32.40
2022-12-18T08:38:55.497Z,31.33
2022-12-18T08:41:24.000Z,32.95
2022-12-18T08:44:09.762Z,31.55
2022-12-18T08:46:42.358Z,30.98
2022-12-18T08:49:11.755Z,29.98
2022-12-18T08:51:42.111Z,35.95
2022-12-18T08:54:13.024Z,33.33
2022-12-18T08:56:41.141Z,29.88
2022-12-18T08:59:10.465Z,32.70
2022-12-18T09:01:41.314Z,32.58
2022-12-18T09:04:11.274Z,33.75
2022-12-18T09:06:41.024Z,31.83
2022-12-18T09:09:10.130Z,31.60
2022-12-18T09:11:38.221Z,35.30
2022-12-18T09:14:06.437Z,41.38
2022-12-18T09:16:36.092Z,36.17
2022-12-18T09:19:08.049Z,36.38
2022-12-18T09:21:47.482Z,33.35
2022-12-18T09:24:18.469Z,31.25
2022-12-18T09:26:47.302Z,36.38
2022-12-18T09:29:18.920Z,32.50
2022-12-18T09:31:47.862Z,31.42
2022-12-18T09:34:18.502Z,29.65
2022-12-18T09:36:46.399Z,32.70
2022-12-18T09:39:17.972Z,28.45
2022-12-18T09:41:54.523Z,28.85
2022-12-18T09:44:27.648Z,28.27
2022-12-18T09:47:11.580Z,28.92
2022-12-18T09:49:44.129Z,28.27
2022-12-18T09:52:19.905Z,27.15
2022-12-18T09:54:55.565Z,26.75
2022-12-18T09:57:26.710Z,28.15
2022-12-18T09:59:58.856Z,27.58
2022-12-18T10:02:28.660Z,26.92
2022-12-18T10:05:11.519Z,27.27
2022-12-18T10:07:49.628Z,27.17
2022-12-18T10:10:29.208Z,27.40
2022-12-18T10:13:05.168Z,25.30
2022-12-18T10:15:41.719Z,25.25
2022-12-18T10:18:24.643Z,24.70
2022-12-18T10:20:56.610Z,24.98
2022-12-18T10:23:30.908Z,24.60
2022-12-18T10:26:06.151Z,24.67
2022-12-18T10:28:40.471Z,24.70
2022-12-18T10:31:11.051Z,25.45
2022-12-18T10:33:39.391Z,24.45
2022-12-18T10:36:09.989Z,25.08
2022-12-18T10:38:40.089Z,23.45
2022-12-18T10:41:29.333Z,24.40
2022-12-18T10:44:17.906Z,22.98
2022-12-18T10:46:47.872Z,24.65
2022-12-18T10:49:29.035Z,22.40
2022-12-18T10:52:09.197Z,22.63
2022-12-18T10:54:39.671Z,21.35
2022-12-18T10:57:20.497Z,23.38
2022-12-18T10:59:54.296Z,22.70
2022-12-18T11:02:37.647Z,24.38
2022-12-18T11:05:24.758Z,22.38
2022-12-18T11:07:55.688Z,24.83
2022-12-18T11:10:26.603Z,23.85
2022-12-18T11:13:10.961Z,25.05
2022-12-18T11:15:44.665Z,23.65
2022-12-18T11:18:21.310Z,23.05
2022-12-18T11:20:58.948Z,24.60
2022-12-18T11:23:28.699Z,23.77
2022-12-18T11:26:00.292Z,24.88
2022-12-18T11:28:39.370Z,24.80
2022-12-18T11:31:19.712Z,24.48
2022-12-18T11:34:27.055Z,22.85
2022-12-18T11:36:46.241Z,24.48
2022-12-18T11:39:22.050Z,21.00
2022-12-18T11:42:16.158Z,22.27
2022-12-18T11:44:51.892Z,22.50
2022-12-18T11:47:31.651Z,24.33
2022-12-18T11:50:03.959Z,21.45
2022-12-18T11:56:32.802Z,23.30
2022-12-18T11:59:13.807Z,23.13
2022-12-18T12:01:51.227Z,23.88
2022-12-18T12:04:39.391Z,23.45
2022-12-18T12:07:23.740Z,23.95
2022-12-18T12:10:02.059Z,24.65
2022-12-18T12:12:49.147Z,24.73
2022-12-18T12:15:31.303Z,24.48
2022-12-18T12:18:11.582Z,21.67
2022-12-18T12:20:57.143Z,22.45
2022-12-18T12:23:34.727Z,22.75
2022-12-18T12:26:07.997Z,23.58
2022-12-18T12:29:05.016Z,22.58
2022-12-18T12:31:46.223Z,20.65
2022-12-18T12:34:24.548Z,23.08
2022-12-18T12:37:08.020Z,25.25
2022-12-18T12:39:39.858Z,23.15
2022-12-18T12:42:33.999Z,22.60
2022-12-18T12:45:08.232Z,23.25
2022-12-18T12:47:42.090Z,23.52
2022-12-18T12:50:19.885Z,22.05
2022-12-18T12:52:52.633Z,23.08
2022-12-18T12:55:24.177Z,22.30
2022-12-18T12:58:02.280Z,21.35
2022-12-18T13:00:38.438Z,23.17
2022-12-18T13:03:14.144Z,21.65
2022-12-18T13:05:50.609Z,22.15
2022-12-18T13:08:26.580Z,21.52
2022-12-18T13:11:17.999Z,22.88
2022-12-18T13:13:51.811Z,20.88
2022-12-18T13:16:22.199Z,21.70
2022-12-18T13:18:55.550Z,23.08
2022-12-18T13:21:29.271Z,20.67
2022-12-18T13:24:00.926Z,21.02
2022-12-18T13:26:35.523Z,20.90
2022-12-18T13:29:05.254Z,20.08
2022-12-18T13:32:10.851Z,21.60
2022-12-18T13:34:39.298Z,21.27
2022-12-18T13:37:42.671Z,22.33
2022-12-18T13:40:52.408Z,21.15
2022-12-18T13:43:42.172Z,21.00
2022-12-18T13:46:23.391Z,21.85
2022-12-18T13:48:56.528Z,22.75
2022-12-18T13:51:26.141Z,25.63
2022-12-18T13:53:59.456Z,24.95
2022-12-18T13:56:29.769Z,31.05
2022-12-18T13:59:19.149Z,28.25
2022-12-18T14:01:54.666Z,29.97
2022-12-18T14:07:00.964Z,42.83
2022-12-18T14:09:32.666Z,76.30
2022-12-18T14:12:19.988Z,36.60
2022-12-18T14:14:54.994Z,31.17
2022-12-18T14:17:24.668Z,27.30
2022-12-18T14:19:53.797Z,34.10
2022-12-18T14:22:28.633Z,32.28
2022-12-18T14:25:17.908Z,34.08
2022-12-18T14:27:48.339Z,39.33
2022-12-18T14:30:30.497Z,44.15
2022-12-18T14:33:12.179Z,32.87
2022-12-18T14:35:41.752Z,27.75
2022-12-18T14:38:29.115Z,30.00
2022-12-18T14:41:03.122Z,25.15
2022-12-18T14:43:33.857Z,29.55
2022-12-18T14:46:02.956Z,27.67
2022-12-18T14:48:40.628Z,31.55
2022-12-18T14:51:18.973Z,29.42
2022-12-18T14:53:54.837Z,30.02
2022-12-18T14:56:26.916Z,33.53
2022-12-18T14:58:58.099Z,31.10
2022-12-18T15:01:29.412Z,29.70
2022-12-18T15:04:00.053Z,30.63
2022-12-18T15:06:31.315Z,32.83
2022-12-18T15:08:59.912Z,30.05
2022-12-18T15:11:37.743Z,29.02
2022-12-18T15:14:34.020Z,29.30
2022-12-18T15:17:04.063Z,31.60
2022-12-18T15:19:38.432Z,29.50
2022-12-18T15:22:07.015Z,29.92
2022-12-18T15:24:35.242Z,29.33
2022-12-18T15:27:04.490Z,31.70
2022-12-18T15:29:32.363Z,30.52
2022-12-18T15:32:03.206Z,33.72
2022-12-18T15:34:31.956Z,33.63
2022-12-18T15:37:01.972Z,34.92
2022-12-18T15:39:30.312Z,35.35
2022-12-18T15:42:15.862Z,32.28
2022-12-18T15:44:45.966Z,32.40
2022-12-18T15:47:15.339Z,32.88
2022-12-18T15:49:43.355Z,31.90
2022-12-18T15:52:14.824Z,32.80
2022-12-18T15:55:00.315Z,35.00
2022-12-18T15:57:28.557Z,34.45
2022-12-18T15:59:59.309Z,33.35
2022-12-18T16:02:29.285Z,32.60
2022-12-18T16:04:58.725Z,33.33
2022-12-18T16:07:30.533Z,33.55
2022-12-18T16:09:59.423Z,31.50
2022-12-18T16:12:30.315Z,34.83
2022-12-18T16:15:02.131Z,34.00
2022-12-18T16:17:30.613Z,33.70
2022-12-18T16:19:58.941Z,32.10
2022-12-18T16:22:29.253Z,32.55
2022-12-18T16:24:58.749Z,32.03
2022-12-18T16:27:28.806Z,31.92
2022-12-18T16:29:59.504Z,34.08
2022-12-18T16:32:29.277Z,33.60
2022-12-18T16:35:01.933Z,35.17
2022-12-18T16:37:30.245Z,37.47
2022-12-18T16:39:58.564Z,36.35
2022-12-18T16:42:26.874Z,35.72
2022-12-18T16:44:55.031Z,37.83
2022-12-18T16:47:26.583Z,34.83
2022-12-18T16:49:54.779Z,33.90
2022-12-18T16:52:23.576Z,32.25
2022-12-18T16:54:52.460Z,31.60
2022-12-18T16:57:23.181Z,40.33
2022-12-18T16:59:54.434Z,32.67
2022-12-18T17:02:26.081Z,33.28
2022-12-18T17:04:58.235Z,31.60
2022-12-18T17:07:28.096Z,33.63
2022-12-18T17:09:56.753Z,34.10
2022-12-18T17:12:27.174Z,39.13
2022-12-18T17:14:55.054Z,37.70
2022-12-18T17:17:25.781Z,36.78
2022-12-18T17:19:53.932Z,33.10
2022-12-18T17:22:23.025Z,32.05
2022-12-18T17:24:51.405Z,29.50
2022-12-18T17:27:19.934Z,29.83
2022-12-18T17:29:50.300Z,28.25
2022-12-18T17:32:21.010Z,28.45
2022-12-18T17:34:50.384Z,29.63
2022-12-18T17:37:19.622Z,33.13
2022-12-18T17:39:47.656Z,34.88
2022-12-18T17:42:16.096Z,32.15
2022-12-18T17:44:44.766Z,34.03
2022-12-18T17:47:13.283Z,36.42
2022-12-18T17:49:41.858Z,31.33
2022-12-18T17:52:13.571Z,27.55
2022-12-18T17:54:42.520Z,27.40
2022-12-18T17:57:10.989Z,28.25
2022-12-18T17:59:40.232Z,27.88
2022-12-18T18:02:11.016Z,29.38
2022-12-18T18:04:39.725Z,28.65
2022-12-18T18:07:08.072Z,26.33
2022-12-18T18:09:37.928Z,30.75
2022-12-18T18:12:24.596Z,29.58
2022-12-18T18:14:55.591Z,25.17
2022-12-18T18:17:23.994Z,25.23
2022-12-18T18:19:54.181Z,26.67
2022-12-18T18:22:22.855Z,25.90
2022-12-18T18:24:54.690Z,29.33
2022-12-18T18:27:22.602Z,24.60
2022-12-18T18:29:50.981Z,31.15
2022-12-18T18:32:21.406Z,27.67
2022-12-18T18:34:49.739Z,25.73
2022-12-18T18:37:18.085Z,28.30
2022-12-18T18:39:45.970Z,26.02
2022-12-18T18:42:15.268Z,33.53
2022-12-18T18:44:48.793Z,30.55
2022-12-18T18:47:18.666Z,29.38
2022-12-18T18:49:47.063Z,26.55
2022-12-18T18:52:15.447Z,26.30
2022-12-18T18:55:10.781Z,25.25
2022-12-18T18:57:36.648Z,22.60
2022-12-18T19:00:05.289Z,24.08
2022-12-18T19:02:33.625Z,23.38
2022-12-18T19:05:02.374Z,24.02
2022-12-18T19:07:31.329Z,23.48
2022-12-18T19:10:04.672Z,22.75
2022-12-18T19:12:52.025Z,24.80
2022-12-18T19:15:24.040Z,23.33
2022-12-18T19:17:52.629Z,22.42
2022-12-18T19:20:20.831Z,21.73
2022-12-18T19:22:55.644Z,24.15
2022-12-18T19:25:38.452Z,23.98
2022-12-18T19:28:13.246Z,22.55
2022-12-18T19:30:54.509Z,22.40
2022-12-18T19:33:42.480Z,24.08
2022-12-18T19:36:16.632Z,24.88
2022-12-18T19:38:45.259Z,23.98
2022-12-18T19:41:14.836Z,21.92
2022-12-18T19:43:43.153Z,21.77
2022-12-18T19:46:17.018Z,22.65
2022-12-18T19:48:46.739Z,22.13
2022-12-18T19:51:18.216Z,21.45
2022-12-18T19:53:46.973Z,22.95
2022-12-18T19:56:17.845Z,21.17
2022-12-18T19:58:47.637Z,21.33
2022-12-18T20:01:21.323Z,24.70
2022-12-18T20:03:52.709Z,24.70
2022-12-18T20:09:00.511Z,20.17
2022-12-18T20:11:29.777Z,25.00
2022-12-18T20:14:02.262Z,20.45
2022-12-18T20:16:32.015Z,22.73
2022-12-18T20:19:00.704Z,23.20
2022-12-18T20:21:29.876Z,21.50
2022-12-18T20:24:01.264Z,21.95
2022-12-18T20:26:29.984Z,20.95
2022-12-18T20:28:58.029Z,20.60
2022-12-18T20:31:27.259Z,19.92
2022-12-18T20:34:03.020Z,21.27
2022-12-18T20:36:34.111Z,21.88
2022-12-18T20:39:07.631Z,20.63
2022-12-18T20:41:38.990Z,19.73
2022-12-18T20:44:21.919Z,20.42
2022-12-18T20:46:53.486Z,21.85
2022-12-18T20:49:24.078Z,21.42
2022-12-18T20:51:53.597Z,20.55
2022-12-18T20:54:24.707Z,21.20
2022-12-18T20:56:53.081Z,22.10
2022-12-18T20:59:25.402Z,20.33
2022-12-18T21:01:55.135Z,20.20
2022-12-18T21:04:27.932Z,20.30
2022-12-18T21:07:02.321Z,21.60
2022-12-18T21:09:38.014Z,21.67
2022-12-18T21:12:25.283Z,21.30
2022-12-18T21:14:53.807Z,21.83
2022-12-18T21:17:23.385Z,19.48
2022-12-18T21:19:58.818Z,21.27
2022-12-18T21:22:28.251Z,19.92
2022-12-18T21:24:56.419Z,20.15
2022-12-18T21:27:24.704Z,20.77
2022-12-18T21:29:57.032Z,20.45
2022-12-18T21:32:25.438Z,20.55
2022-12-18T21:34:58.748Z,20.70
2022-12-18T21:37:26.814Z,20.42
2022-12-18T21:39:55.135Z,21.15
2022-12-18T21:42:40.700Z,20.17
2022-12-18T21:45:10.357Z,19.73
2022-12-18T21:47:38.601Z,21.45
2022-12-18T21:50:09.811Z,19.98
2022-12-18T21:52:37.927Z,21.27
2022-12-18T21:55:09.924Z,20.88
2022-12-18T21:57:39.479Z,22.63
2022-12-18T22:00:18.379Z,21.55
2022-12-18T22:03:13.408Z,22.30
2022-12-18T22:05:38.147Z,20.08
2022-12-18T22:08:10.703Z,20.95
2022-12-18T22:13:09.799Z,19.83
2022-12-18T22:15:37.920Z,21.02
2022-12-18T22:18:05.961Z,19.75
2022-12-18T22:20:34.446Z,20.60
2022-12-18T22:23:06.240Z,20.23
2022-12-18T22:25:35.210Z,20.03
2022-12-18T22:28:22.921Z,20.88
2022-12-18T22:30:53.361Z,20.35
2022-12-18T22:33:27.849Z,20.50
2022-12-18T22:35:55.769Z,21.15
2022-12-18T22:38:25.274Z,19.80
2022-12-18T22:40:53.134Z,19.92
2022-12-18T22:43:21.494Z,20.63
2022-12-18T22:45:49.899Z,20.35
2022-12-18T22:48:18.430Z,21.75
2022-12-18T22:50:47.229Z,20.38
2022-12-18T22:53:18.438Z,20.67
2022-12-18T22:55:47.891Z,20.88
2022-12-18T22:58:16.908Z,19.83
2022-12-18T23:00:45.025Z,20.67
2022-12-18T23:03:13.302Z,23.27
2022-12-18T23:05:41.498Z,19.52
2022-12-18T23:08:09.802Z,21.63
2022-12-18T23:10:38.792Z,20.45
2022-12-18T23:13:08.469Z,20.55
2022-12-18T23:15:43.216Z,20.88
2022-12-18T23:18:12.881Z,22.10
2022-12-18T23:20:41.318Z,20.67
2022-12-18T23:23:10.201Z,20.80
2022-12-18T23:25:38.488Z,20.35
2022-12-18T23:28:08.403Z,20.27
2022-12-18T23:30:39.465Z,19.80
2022-12-18T23:33:07.998Z,20.40
2022-12-18T23:35:36.430Z,20.50
2022-12-18T23:38:04.729Z,21.42
2022-12-18T23:40:32.648Z,20.50
2022-12-18T23:43:01.184Z,21.23
2022-12-18T23:45:30.648Z,21.98
2022-12-18T23:47:59.688Z,21.10
2022-12-18T23:50:29.315Z,19.98
2022-12-18T23:53:04.979Z,19.90
2022-12-18T23:55:35.072Z,19.45
2022-12-18T23:58:03.398Z,20.85
